Time;durP1;ratioP1;P1;durP2;ratioP2;P2;SDS_P1;SDS_P2;PMS_P1;PMS_P2;Temp;Humidity;BMP_temperature;BMP_pressure;BME280_temperature;BME280_humidity;BME280_pressure;Samples;Min_cycle;Max_cycle;Signal;HPM_P1;HPM_P2
2022/03/08 00:01:53;;;;;;;122.82;47.00;;;;;;;-0.83;65.03;101109.02;2146126;83;28793;-76
2022/03/08 00:04:55;;;;;;;110.92;44.20;;;;;;;-0.88;64.92;101108.97;2145404;83;30991;-77
2022/03/08 00:07:57;;;;;;;105.78;43.68;;;;;;;-0.94;64.83;101108.48;2107204;83;33347;-77
2022/03/08 00:11:00;;;;;;;122.07;47.73;;;;;;;-1.01;64.81;101107.95;2091497;83;29053;-74
2022/03/08 00:14:01;;;;;;;116.37;48.68;;;;;;;-1.06;65.00;101105.69;2091201;85;27687;-77
2022/03/08 00:17:04;;;;;;;140.35;52.65;;;;;;;-1.11;65.06;101107.41;2092030;84;28596;-71
2022/03/08 00:20:08;;;;;;;122.42;49.05;;;;;;;-1.16;65.08;101106.05;2116061;83;31021;-78
2022/03/08 00:23:10;;;;;;;133.15;52.67;;;;;;;-1.24;65.20;101103.30;2108017;82;36741;-75
2022/03/08 00:26:12;;;;;;;117.08;45.88;;;;;;;-1.28;65.25;101112.45;2124684;81;29012;-73
2022/03/08 00:29:13;;;;;;;109.22;46.90;;;;;;;-1.34;65.30;101115.02;2090990;85;27757;-70
2022/03/08 00:32:15;;;;;;;104.65;45.15;;;;;;;-1.40;65.54;101112.76;2090452;85;28618;-71
2022/03/08 00:35:18;;;;;;;93.75;40.98;;;;;;;-1.44;65.56;101114.02;2091096;85;31015;-68
2022/03/08 00:38:20;;;;;;;96.87;42.03;;;;;;;-1.45;65.83;101113.12;2090986;85;32972;-76
2022/03/08 00:41:22;;;;;;;101.58;43.92;;;;;;;-1.47;65.79;101108.27;2091124;85;29839;-77
2022/03/08 00:44:24;;;;;;;101.33;43.13;;;;;;;-1.51;65.80;101106.91;2091240;85;27477;-76
2022/03/08 00:47:26;;;;;;;82.35;38.00;;;;;;;-1.53;66.05;101106.90;2091104;85;28641;-76
2022/03/08 00:50:30;;;;;;;100.50;44.65;;;;;;;-1.55;66.08;101108.62;2090953;85;31024;-68
2022/03/08 00:53:32;;;;;;;101.05;46.92;;;;;;;-1.58;65.99;101103.31;2108889;82;32968;-69
2022/03/08 00:56:33;;;;;;;96.15;48.00;;;;;;;-1.61;66.18;101104.17;2157541;82;29936;-71
2022/03/08 00:59:35;;;;;;;94.95;46.05;;;;;;;-1.65;66.13;101103.67;2115556;82;27670;-71
2022/03/08 01:02:37;;;;;;;92.67;45.98;;;;;;;-1.69;66.03;101101.44;2099047;83;28651;-68
2022/03/08 01:05:39;;;;;;;90.90;45.20;;;;;;;-1.74;66.00;101100.48;2090744;85;31016;-69
2022/03/08 01:08:41;;;;;;;91.42;44.25;;;;;;;-1.79;66.08;101105.22;2090410;84;32935;-68
2022/03/08 01:11:43;;;;;;;87.72;41.60;;;;;;;-1.85;66.07;101104.71;2090487;85;29732;-72
2022/03/08 01:14:45;;;;;;;87.55;43.13;;;;;;;-1.90;66.03;101105.94;2091138;85;27670;-69
2022/03/08 01:17:47;;;;;;;100.20;48.38;;;;;;;-1.95;66.04;101102.80;2091079;85;28694;-69
2022/03/08 01:20:49;;;;;;;106.83;50.33;;;;;;;-2.00;66.18;101110.61;2090620;85;31138;-69
2022/03/08 01:23:51;;;;;;;101.58;51.15;;;;;;;-2.06;66.24;101108.78;2115790;82;33854;-68
2022/03/08 01:26:53;;;;;;;89.90;45.78;;;;;;;-2.11;66.37;101107.81;2158070;82;29963;-70
2022/03/08 01:29:55;;;;;;;98.65;46.10;;;;;;;-2.17;66.35;101107.30;2148069;82;27596;-69
2022/03/08 01:32:57;;;;;;;102.70;46.68;;;;;;;-2.22;66.40;101108.08;2138745;82;29364;-73
2022/03/08 01:35:59;;;;;;;108.25;45.70;;;;;;;-2.26;66.59;101110.20;2139142;83;31007;-70
2022/03/08 01:39:01;;;;;;;100.42;45.48;;;;;;;-2.32;66.70;101104.42;2138523;83;33126;-70
2022/03/08 01:42:12;;;;;;;95.17;44.00;;;;;;;-2.38;66.61;101107.84;2110697;83;29707;-69
2022/03/08 01:45:17;;;;;;;96.82;45.45;;;;;;;-2.41;66.64;101102.98;2136340;83;28017;-69
2022/03/08 01:48:19;;;;;;;96.80;42.55;;;;;;;-2.47;66.68;101107.66;2103489;84;28665;-69
2022/03/08 01:51:21;;;;;;;74.17;35.60;;;;;;;-2.51;66.84;101109.80;2103364;83;31124;-69
2022/03/08 01:54:23;;;;;;;81.22;37.13;;;;;;;-2.56;67.01;101108.39;2096842;83;33026;-69
2022/03/08 01:57:25;;;;;;;88.78;37.58;;;;;;;-2.60;67.06;101115.33;2139375;83;29969;-70
2022/03/08 02:00:30;;;;;;;74.00;33.88;;;;;;;-2.64;67.13;101122.68;2139384;83;27691;-78
2022/03/08 02:03:33;;;;;;;80.47;37.93;;;;;;;-2.68;67.28;101129.16;2106765;83;28948;-79
2022/03/08 02:06:34;;;;;;;82.22;39.25;;;;;;;-2.72;67.37;101132.58;2102262;84;31028;-71
2022/03/08 02:09:36;;;;;;;76.05;35.33;;;;;;;-2.78;67.56;101135.97;2097959;84;33770;-69
2022/03/08 02:12:38;;;;;;;80.70;36.55;;;;;;;-2.82;67.46;101132.42;2116990;84;28906;-72
2022/03/08 02:15:40;;;;;;;80.87;38.40;;;;;;;-2.85;67.47;101140.22;2099156;83;27661;-68
2022/03/08 02:18:42;;;;;;;80.25;36.73;;;;;;;-2.88;67.56;101132.73;2096229;84;28817;-70
2022/03/08 02:21:44;;;;;;;75.57;36.35;;;;;;;-2.93;67.61;101132.21;2097009;84;31137;-69
2022/03/08 02:24:46;;;;;;;75.03;32.35;;;;;;;-2.97;67.63;101130.38;2143597;82;32961;-71
2022/03/08 02:27:51;;;;;;;68.15;31.93;;;;;;;-2.98;67.62;101118.56;2158467;82;29010;-69
2022/03/08 02:30:53;;;;;;;63.68;31.05;;;;;;;-3.03;67.67;101117.58;2158434;82;27596;-71
2022/03/08 02:33:55;;;;;;;62.55;28.00;;;;;;;-3.07;67.81;101118.86;2150160;82;28630;-72
2022/03/08 02:37:09;;;;;;;70.65;28.15;;;;;;;-3.10;67.86;101109.62;2139193;83;31861;-70
2022/03/08 02:40:11;;;;;;;65.25;29.72;;;;;;;-3.12;67.94;101114.35;2103267;83;33896;-79
2022/03/08 02:43:13;;;;;;;72.15;31.40;;;;;;;-3.14;68.20;101127.44;2102937;84;29078;-72
2022/03/08 02:46:15;;;;;;;65.47;30.15;;;;;;;-3.18;67.91;101116.88;2103358;84;27618;-71
2022/03/08 02:49:17;;;;;;;67.85;29.52;;;;;;;-3.23;67.75;101120.72;2103242;84;29685;-78
2022/03/08 02:52:18;;;;;;;67.65;30.15;;;;;;;-3.27;67.93;101117.12;2103201;84;31012;-77
2022/03/08 02:55:24;;;;;;;61.00;29.55;;;;;;;-3.30;68.12;101121.43;2135416;83;33999;-72
2022/03/08 02:58:26;;;;;;;67.53;30.35;;;;;;;-3.33;68.19;101122.27;2137307;83;29162;-68
2022/03/08 03:01:28;;;;;;;64.10;30.00;;;;;;;-3.36;68.35;101123.50;2137462;83;27688;-76
2022/03/08 03:04:29;;;;;;;71.28;30.45;;;;;;;-3.39;68.37;101122.13;2137473;83;28613;-71
2022/03/08 03:07:32;;;;;;;61.23;27.82;;;;;;;-3.42;68.26;101126.89;2121674;83;31254;-70
2022/03/08 03:10:35;;;;;;;72.95;30.48;;;;;;;-3.46;68.21;101121.52;2138598;81;34010;-71
2022/03/08 03:13:36;;;;;;;67.62;31.42;;;;;;;-3.49;68.24;101139.82;2138955;83;29060;-78
2022/03/08 03:16:38;;;;;;;70.78;32.10;;;;;;;-3.56;68.26;101139.67;2139066;83;27729;-73
2022/03/08 03:19:40;;;;;;;74.70;32.03;;;;;;;-3.58;68.45;101137.44;2106827;83;29497;-74
2022/03/08 03:22:42;;;;;;;83.25;38.98;;;;;;;-3.61;68.41;101145.23;2108455;83;31065;-78
2022/03/08 03:25:44;;;;;;;73.22;31.87;;;;;;;-3.65;68.34;101143.41;2147718;82;32974;-69
2022/03/08 03:28:46;;;;;;;77.47;33.02;;;;;;;-3.68;68.40;101143.34;2147897;81;29774;-71
2022/03/08 03:31:48;;;;;;;79.58;32.85;;;;;;;-3.72;68.49;101150.22;2147988;81;27756;-79
2022/03/08 03:34:50;;;;;;;70.52;31.25;;;;;;;-3.75;68.73;101153.20;2147942;81;28627;-79
2022/03/08 03:37:52;;;;;;;75.85;33.90;;;;;;;-3.79;68.56;101162.73;2147969;82;32060;-73
2022/03/08 03:40:54;;;;;;;70.52;31.35;;;;;;;-3.83;68.46;101165.70;2148032;82;32596;-71
2022/03/08 03:43:56;;;;;;;67.20;29.98;;;;;;;-3.85;68.49;101161.27;2118192;81;29108;-75
2022/03/08 03:46:58;;;;;;;66.12;29.50;;;;;;;-3.89;68.58;101160.75;2117116;84;27597;-70
2022/03/08 03:50:00;;;;;;;71.02;28.47;;;;;;;-3.92;68.68;101161.55;2108831;83;28676;-71
2022/03/08 03:53:01;;;;;;;64.40;28.38;;;;;;;-3.97;68.63;101165.37;2101745;82;31012;-75
2022/03/08 03:56:04;;;;;;;67.15;27.48;;;;;;;-4.01;68.81;101166.57;2157137;81;32978;-70
2022/03/08 03:59:06;;;;;;;65.90;29.98;;;;;;;-4.04;68.93;101163.44;2158108;82;29019;-71
2022/03/08 04:02:08;;;;;;;65.40;29.27;;;;;;;-4.06;68.86;101162.55;2158024;81;27704;-70
2022/03/08 04:05:11;;;;;;;70.15;28.32;;;;;;;-4.08;69.02;101169.88;2158296;81;28680;-71
2022/03/08 04:08:13;;;;;;;70.12;30.15;;;;;;;-4.10;69.05;101171.56;2158017;81;30441;-71
2022/03/08 04:11:15;;;;;;;66.17;29.30;;;;;;;-4.13;69.17;101175.00;2157929;82;33233;-70
2022/03/08 04:14:16;;;;;;;67.67;30.12;;;;;;;-4.15;69.16;101167.53;2157940;81;29823;-71
2022/03/08 04:17:18;;;;;;;66.60;31.50;;;;;;;-4.18;69.23;101159.20;2157969;82;27749;-69
2022/03/08 04:20:20;;;;;;;65.32;29.15;;;;;;;-4.19;69.30;101159.14;2158008;82;28786;-69
2022/03/08 04:23:22;;;;;;;70.50;31.37;;;;;;;-4.21;69.36;101166.97;2143709;81;31177;-72
2022/03/08 04:26:23;;;;;;;77.87;33.90;;;;;;;-4.23;69.36;101167.34;2138903;83;34047;-71
2022/03/08 04:29:25;;;;;;;78.22;32.20;;;;;;;-4.25;69.33;101172.95;2139028;83;29218;-70
2022/03/08 04:32:27;;;;;;;73.28;33.58;;;;;;;-4.27;69.36;101178.57;2139006;83;28258;-70
2022/03/08 04:35:29;;;;;;;67.78;30.52;;;;;;;-4.29;69.44;101175.03;2139036;83;28704;-71
2022/03/08 04:38:30;;;;;;;76.05;34.70;;;;;;;-4.30;69.51;101176.77;2139112;83;31209;-70
2022/03/08 04:41:32;;;;;;;77.17;32.00;;;;;;;-4.32;69.45;101186.75;2139374;83;32957;-70
2022/03/08 04:44:34;;;;;;;75.50;36.90;;;;;;;-4.34;69.50;101188.44;2137906;83;29083;-77
2022/03/08 04:47:37;;;;;;;64.32;32.28;;;;;;;-4.36;69.74;101186.20;2105265;83;27792;-70
2022/03/08 04:50:39;;;;;;;73.62;34.08;;;;;;;-4.37;69.59;101193.14;2106678;83;29663;-71
2022/03/08 04:53:40;;;;;;;68.07;31.82;;;;;;;-4.35;69.59;101195.81;2090373;85;31687;-70
2022/03/08 04:56:42;;;;;;;72.87;33.33;;;;;;;-4.31;69.71;101196.36;2090855;85;32915;-70
2022/03/08 04:59:44;;;;;;;79.58;37.13;;;;;;;-4.24;69.89;101199.58;2114026;84;29793;-73
2022/03/08 05:02:46;;;;;;;81.02;36.73;;;;;;;-4.14;70.15;101196.78;2100735;83;27671;-71
2022/03/08 05:05:47;;;;;;;76.60;34.92;;;;;;;-4.04;70.46;101204.44;2090941;85;29964;-71
2022/03/08 05:08:49;;;;;;;71.33;33.80;;;;;;;-3.94;70.63;101195.95;2093018;84;31956;-71
2022/03/08 05:11:51;;;;;;;77.03;35.50;;;;;;;-3.80;70.72;101196.30;2113244;84;33961;-70
2022/03/08 05:14:53;;;;;;;74.53;34.78;;;;;;;-3.67;70.78;101201.41;2120910;81;29010;-72
2022/03/08 05:17:54;;;;;;;78.67;36.55;;;;;;;-3.54;70.80;101202.55;2113502;82;27864;-70
2022/03/08 05:20:56;;;;;;;84.13;37.33;;;;;;;-3.41;70.90;101201.10;2112578;84;29439;-71
2022/03/08 05:23:58;;;;;;;86.63;39.83;;;;;;;-3.29;70.97;101202.67;2142161;82;31811;-71
2022/03/08 05:27:00;;;;;;;80.22;35.45;;;;;;;-3.15;71.09;101200.80;2161672;82;33765;-71
2022/03/08 05:30:03;;;;;;;77.22;38.33;;;;;;;-3.02;71.15;101207.16;2148904;82;29225;-71
2022/03/08 05:33:05;;;;;;;83.97;38.33;;;;;;;-2.91;71.18;101203.05;2113355;84;27632;-70
2022/03/08 05:36:07;;;;;;;88.33;39.08;;;;;;;-2.80;71.19;101208.07;2113388;84;28604;-71
2022/03/08 05:39:09;;;;;;;87.92;38.73;;;;;;;-2.67;71.26;101211.83;2113364;84;31092;-70
2022/03/08 05:42:11;;;;;;;79.30;37.50;;;;;;;-2.53;71.25;101211.20;2113296;84;33113;-71
2022/03/08 05:45:13;;;;;;;90.45;39.20;;;;;;;-2.42;71.29;101216.21;2145538;82;29045;-71
2022/03/08 05:48:15;;;;;;;93.12;41.25;;;;;;;-2.32;71.28;101222.11;2175053;81;27631;-71
2022/03/08 05:51:17;;;;;;;86.90;39.85;;;;;;;-2.20;71.31;101223.17;2175100;81;28622;-70
2022/03/08 05:54:19;;;;;;;88.20;40.10;;;;;;;-2.07;71.33;101230.84;2158873;81;31187;-71
2022/03/08 05:57:20;;;;;;;87.97;41.42;;;;;;;-1.96;71.37;101231.91;2150036;81;33103;-71
2022/03/08 06:00:22;;;;;;;102.80;45.03;;;;;;;-1.83;71.34;101233.00;2148463;82;29007;-70
2022/03/08 06:03:24;;;;;;;91.10;45.67;;;;;;;-1.71;71.31;101246.33;2147452;82;27683;-69
2022/03/08 06:06:26;;;;;;;105.87;45.43;;;;;;;-1.58;71.34;101247.41;2174884;81;28697;-70
2022/03/08 06:09:28;;;;;;;92.72;43.52;;;;;;;-1.44;71.33;101251.99;2174638;81;31025;-70
2022/03/08 06:12:30;;;;;;;100.42;43.90;;;;;;;-1.29;71.31;101249.59;2173772;81;32985;-71
2022/03/08 06:15:32;;;;;;;95.45;43.75;;;;;;;-1.14;71.23;101246.27;2174106;81;29238;-70
2022/03/08 06:18:34;;;;;;;85.53;40.55;;;;;;;-1.00;71.16;101247.78;2174230;81;27671;-70
2022/03/08 06:21:35;;;;;;;88.85;41.40;;;;;;;-0.86;71.10;101247.98;2168077;81;28637;-69
2022/03/08 06:24:37;;;;;;;92.10;44.35;;;;;;;-0.72;70.98;101244.63;2145751;83;31181;-69
2022/03/08 06:27:39;;;;;;;92.40;44.00;;;;;;;-0.59;70.89;101242.59;2145137;83;33736;-69
2022/03/08 06:30:41;;;;;;;89.58;42.33;;;;;;;-0.47;70.92;101241.41;2144609;83;29074;-69
2022/03/08 06:33:43;;;;;;;84.67;41.98;;;;;;;-0.34;70.90;101242.42;2126304;83;27664;-69
2022/03/08 06:36:45;;;;;;;82.60;43.28;;;;;;;-0.17;70.83;101249.20;2122010;83;28469;-67
2022/03/08 06:39:47;;;;;;;80.28;40.55;;;;;;;0.01;70.77;101253.30;2111506;83;30638;-68
2022/03/08 06:42:49;;;;;;;86.95;40.35;;;;;;;0.16;70.60;101256.06;2088371;84;32978;-70
2022/03/08 06:45:51;;;;;;;77.80;38.30;;;;;;;0.29;70.50;101257.94;2109180;84;29005;-68
2022/03/08 06:48:53;;;;;;;80.38;37.78;;;;;;;0.44;70.44;101263.78;2109670;84;27616;-70
2022/03/08 06:51:58;;;;;;;80.07;37.75;;;;;;;0.57;70.31;101268.72;2109794;83;29520;-72
2022/03/08 06:55:00;;;;;;;76.02;36.63;;;;;;;0.71;70.27;101269.23;2109561;84;31076;-74
2022/03/08 06:58:03;;;;;;;70.37;33.42;;;;;;;0.83;70.08;101273.27;2109747;84;33182;-72
2022/03/08 07:01:05;;;;;;;63.15;31.07;;;;;;;0.94;69.94;101268.06;2172371;81;29107;-69
2022/03/08 07:04:07;;;;;;;64.67;31.12;;;;;;;1.06;69.97;101270.76;2137315;83;27600;-70
2022/03/08 07:07:09;;;;;;;60.12;27.65;;;;;;;1.19;69.92;101269.08;2141240;83;28645;-72
2022/03/08 07:10:11;;;;;;;61.98;28.57;;;;;;;1.32;69.75;101267.37;2132201;83;31815;-69
2022/03/08 07:13:15;;;;;;;62.15;29.55;;;;;;;1.43;69.59;101263.44;2141211;83;32979;-75
2022/03/08 07:16:18;;;;;;;67.30;31.42;;;;;;;1.52;69.42;101265.23;2141347;83;29036;-73
2022/03/08 07:19:20;;;;;;;65.57;32.03;;;;;;;1.61;69.27;101256.03;2121401;83;27751;-70
2022/03/08 07:22:22;;;;;;;65.30;31.02;;;;;;;1.70;69.13;101260.45;2142839;83;29636;-71
2022/03/08 07:25:24;;;;;;;72.17;32.45;;;;;;;1.78;68.99;101261.80;2142744;83;31127;-74
2022/03/08 07:28:26;;;;;;;67.37;31.30;;;;;;;1.84;68.83;101266.20;2117409;83;33816;-69
2022/03/08 07:31:36;;;;;;;66.60;29.45;;;;;;;1.91;68.82;101272.83;2141120;83;29949;-70
2022/03/08 07:34:51;;;;;;;66.45;30.32;;;;;;;2.00;68.81;101278.99;2141221;83;27593;-67
2022/03/08 07:38:05;;;;;;;61.42;29.05;;;;;;;2.10;68.89;101275.05;2156611;82;28691;-72
2022/03/08 07:41:09;;;;;;;70.83;32.95;;;;;;;2.22;68.70;101281.25;2138467;83;31117;-68
2022/03/08 07:44:20;;;;;;;68.25;31.65;;;;;;;2.32;68.65;101282.14;2106715;84;32959;-69
2022/03/08 07:47:25;;;;;;;56.88;27.40;;;;;;;2.44;68.58;101280.81;2083627;84;30050;-74
2022/03/08 07:50:31;;;;;;;;;;;;;;;2.55;68.32;101281.67;2109681;84;27684;-75
2022/03/08 07:53:47;;;;;;;43.20;23.00;;;;;;;2.65;68.30;101285.66;2069810;86;28824;-73
2022/03/08 07:56:54;;;;;;;;;;;;;;;2.73;68.27;101286.05;2108889;84;27700;-73
2022/03/08 07:59:56;;;;;;;50.13;24.97;;;;;;;2.87;68.06;101287.37;2081032;84;33119;-69
2022/03/08 08:02:59;;;;;;;45.28;23.40;;;;;;;3.00;68.03;101280.72;2126715;83;29806;-77
2022/03/08 08:06:02;;;;;;;46.98;26.35;;;;;;;3.13;67.79;101282.47;2116364;83;27679;-71
2022/03/08 08:09:04;;;;;;;57.13;26.17;;;;;;;3.29;67.64;101285.94;2070151;86;29483;-70
2022/03/08 08:12:08;;;;;;;61.37;28.67;;;;;;;3.42;67.54;101278.83;2083129;84;31027;-72
2022/03/08 08:15:10;;;;;;;46.63;25.08;;;;;;;3.59;67.49;101277.41;2084001;85;34093;-70
2022/03/08 08:18:12;;;;;;;48.85;26.37;;;;;;;3.75;67.19;101278.23;2084118;85;29099;-69
2022/03/08 08:21:14;;;;;;;48.48;24.98;;;;;;;3.88;67.16;101275.07;2084339;85;27607;-75
2022/03/08 08:24:15;;;;;;;50.95;28.12;;;;;;;4.02;66.83;101273.64;2120435;82;28513;-70
2022/03/08 08:27:17;;;;;;;44.18;22.35;;;;;;;4.15;66.63;101273.11;2151591;82;31899;-69
2022/03/08 08:30:19;;;;;;;43.23;23.00;;;;;;;4.30;66.39;101269.91;2143153;82;33930;-71
2022/03/08 08:33:21;;;;;;;34.38;18.45;;;;;;;4.45;66.30;101271.56;2138937;82;29048;-70
2022/03/08 08:36:23;;;;;;;26.57;14.30;;;;;;;4.64;65.80;101275.79;2139447;83;27682;-75
2022/03/08 08:39:25;;;;;;;28.75;14.80;;;;;;;4.84;65.41;101278.70;2138410;83;28668;-71
2022/03/08 08:42:27;;;;;;;22.80;11.50;;;;;;;4.99;64.59;101270.58;2139032;83;31086;-69
2022/03/08 08:45:30;;;;;;;21.70;12.30;;;;;;;5.12;63.48;101275.31;2139404;83;33760;-68
2022/03/08 08:48:31;;;;;;;22.75;12.40;;;;;;;5.26;63.77;101263.64;2139323;83;29238;-81
2022/03/08 08:51:34;;;;;;;31.02;18.48;;;;;;;5.45;63.51;101262.52;2139495;83;27694;-69
2022/03/08 08:54:36;;;;;;;27.50;13.25;;;;;;;5.73;63.60;101262.61;2137751;83;29512;-69
2022/03/08 08:57:38;;;;;;;23.95;11.65;;;;;;;5.88;62.67;101265.48;2140268;82;30584;-70
2022/03/08 09:00:40;;;;;;;22.05;11.73;;;;;;;5.89;61.85;101268.14;2117349;84;32962;-70
2022/03/08 09:03:45;;;;;;;33.53;15.10;;;;;;;5.81;60.97;101258.05;2116661;83;29803;-71
2022/03/08 09:06:47;;;;;;;13.35;8.63;;;;;;;5.73;60.55;101265.27;2117629;84;27855;-68
2022/03/08 09:09:49;;;;;;;16.80;8.45;;;;;;;5.58;59.61;101260.59;2120025;83;29461;-72
2022/03/08 09:12:51;;;;;;;17.20;9.05;;;;;;;5.54;59.68;101269.50;2144888;83;31015;-69
2022/03/08 09:15:53;;;;;;;15.50;7.78;;;;;;;5.61;60.20;101271.19;2145903;82;33174;-69
2022/03/08 09:18:55;;;;;;;20.23;9.60;;;;;;;5.71;59.56;101266.59;2146276;82;28473;-69
2022/03/08 09:21:57;;;;;;;13.80;6.58;;;;;;;5.71;57.71;101267.06;2146032;82;27774;-69
2022/03/08 09:24:59;;;;;;;10.48;5.50;;;;;;;5.70;58.23;101270.63;2144314;83;28662;-69
2022/03/08 09:28:05;;;;;;;17.15;7.80;;;;;;;5.57;57.64;101276.55;2087447;85;31862;-68
2022/03/08 09:31:07;;;;;;;12.95;7.35;;;;;;;5.41;57.48;101282.05;2086736;85;32971;-70
2022/03/08 09:34:09;;;;;;;23.00;10.50;;;;;;;5.41;58.27;101275.88;2087707;85;28995;-67
2022/03/08 09:37:12;;;;;;;18.67;9.93;;;;;;;5.43;56.56;101280.73;2087686;85;27709;-69
2022/03/08 09:40:14;;;;;;;17.55;9.28;;;;;;;5.37;57.53;101279.46;2073183;85;28709;-79
2022/03/08 09:43:16;;;;;;;19.27;9.35;;;;;;;5.46;57.17;101285.55;2107845;83;31660;-72
2022/03/08 09:46:19;;;;;;;18.45;9.13;;;;;;;5.48;56.88;101278.44;2116618;83;32934;-79
2022/03/08 09:49:21;;;;;;;21.17;11.10;;;;;;;5.62;57.17;101273.38;2103691;84;29078;-68
2022/03/08 09:52:23;;;;;;;14.47;8.03;;;;;;;5.76;56.66;101265.23;2109232;84;27704;-75
2022/03/08 09:55:26;;;;;;;16.32;8.20;;;;;;;5.88;56.96;101259.73;1970052;88;30024;-79
2022/03/08 09:58:28;;;;;;;19.52;10.20;;;;;;;5.87;55.90;101263.75;2045019;86;31047;-76
2022/03/08 10:01:31;;;;;;;16.37;10.08;;;;;;;5.72;56.35;101268.83;2059748;86;33970;-74
2022/03/08 10:04:32;;;;;;;19.87;11.15;;;;;;;5.68;55.42;101259.12;2065535;86;29865;-68
2022/03/08 10:07:34;;;;;;;18.52;10.88;;;;;;;5.68;56.44;101253.80;2064552;86;27728;-70
2022/03/08 10:11:01;;;;;;;16.40;10.18;;;;;;;5.82;56.95;101256.28;2048519;86;28655;-68
2022/03/08 10:14:03;;;;;;;16.40;9.93;;;;;;;6.00;56.19;101252.49;2033799;86;31929;-70
2022/03/08 10:17:09;;;;;;;15.03;9.03;;;;;;;6.03;55.93;101259.09;2034278;86;33786;-69
2022/03/08 10:20:12;;;;;;;15.15;9.00;;;;;;;6.10;56.12;101262.55;2033927;87;29065;-69
2022/03/08 10:23:14;;;;;;;17.92;9.43;;;;;;;5.98;55.75;101268.45;2047182;85;27702;-68
2022/03/08 10:26:16;;;;;;;14.58;8.43;;;;;;;5.83;55.50;101259.38;2057211;85;28829;-68
2022/03/08 10:29:36;;;;;;;15.70;8.88;;;;;;;5.72;55.74;101255.53;2084240;84;31032;-68
2022/03/08 10:32:39;;;;;;;21.00;9.20;;;;;;;5.67;55.92;101251.61;2083905;85;33063;-70
2022/03/08 10:35:43;;;;;;;15.13;8.80;;;;;;;5.67;55.69;101253.38;2100752;84;28895;-67
2022/03/08 10:39:10;;;;;;;17.07;10.15;;;;;;;5.72;55.68;101251.55;2091578;84;27706;-67
2022/03/08 10:42:11;;;;;;;13.45;8.25;;;;;;;5.82;55.83;101249.63;2096021;84;28908;-70
2022/03/08 10:45:16;;;;;;;14.80;8.88;;;;;;;5.94;55.27;101246.78;2037977;84;31021;-70
2022/03/08 10:48:18;;;;;;;16.60;8.28;;;;;;;6.12;55.75;101236.36;2097015;84;32974;-73
2022/03/08 10:51:20;;;;;;;13.38;7.75;;;;;;;6.27;55.30;101232.55;2097163;83;29064;-69
2022/03/08 10:54:25;;;;;;;15.85;7.87;;;;;;;6.28;54.55;101239.64;2129440;82;27754;-70
2022/03/08 10:57:33;;;;;;;13.25;7.40;;;;;;;6.11;54.02;101231.94;2151632;82;28658;-69
2022/03/08 11:00:53;;;;;;;15.60;6.90;;;;;;;5.88;54.09;101229.58;2150700;82;31830;-68
2022/03/08 11:03:57;;;;;;;11.43;6.83;;;;;;;5.69;53.94;101228.98;2097489;82;33048;-69
2022/03/08 11:07:05;;;;;;;9.88;5.65;;;;;;;5.58;53.47;101218.06;2097059;84;29038;-68
2022/03/08 11:10:10;;;;;;;11.10;6.35;;;;;;;5.47;53.48;101219.54;2096990;84;27702;-68
2022/03/08 11:13:13;;;;;;;;;;;;;;;5.48;54.28;101209.34;2102098;84;28735;-68
2022/03/08 11:16:16;;;;;;;12.30;6.00;;;;;;;5.52;53.42;101202.66;2100421;84;31234;-69
2022/03/08 11:19:19;;;;;;;14.28;7.50;;;;;;;5.44;53.81;101192.14;2100396;84;33168;-69
2022/03/08 11:22:22;;;;;;;11.08;6.47;;;;;;;5.40;53.71;101190.41;2102347;82;29247;-68
2022/03/08 11:25:29;;;;;;;11.38;6.80;;;;;;;5.37;53.25;101185.13;2152944;82;27719;-69
2022/03/08 11:28:32;;;;;;;19.62;9.60;;;;;;;5.40;53.96;101180.64;2136445;83;29425;-69
2022/03/08 11:31:35;;;;;;;20.50;11.63;;;;;;;5.46;54.22;101182.37;2105428;83;31108;-69
2022/03/08 11:34:45;;;;;;;19.92;10.78;;;;;;;5.46;54.50;101169.94;2106509;83;33767;-68
2022/03/08 11:37:47;;;;;;;20.57;12.15;;;;;;;5.58;54.82;101156.93;2101388;83;29047;-70
2022/03/08 11:40:53;;;;;;;18.07;8.85;;;;;;;5.76;54.73;101147.78;2144894;82;27652;-69
2022/03/08 11:43:57;;;;;;;13.88;8.00;;;;;;;5.90;54.12;101149.33;2125786;82;29494;-72
2022/03/08 11:47:07;;;;;;;11.53;7.77;;;;;;;5.95;53.93;101153.27;2116175;83;31190;-69
2022/03/08 11:50:31;;;;;;;15.00;7.75;;;;;;;5.98;53.91;101149.20;2120190;83;33784;-69
2022/03/08 11:53:33;;;;;;;12.25;6.92;;;;;;;5.98;53.56;101150.09;2126289;82;29034;-70
2022/03/08 11:56:51;;;;;;;15.53;8.08;;;;;;;5.99;53.85;101154.95;2132796;83;27689;-69
2022/03/08 12:00:35;;;;;;;15.25;8.63;;;;;;;6.00;53.39;101148.76;2098121;83;28678;-69
2022/03/08 12:03:39;;;;;;;21.25;11.00;;;;;;;5.95;53.39;101147.48;2097216;84;31057;-68
2022/03/08 12:06:53;;;;;;;18.98;11.43;;;;;;;6.04;53.88;101149.14;2096914;83;33065;-68
2022/03/08 12:10:23;;;;;;;19.15;10.65;;;;;;;6.12;53.83;101140.59;2106593;83;29076;-68
2022/03/08 12:13:25;;;;;;;16.55;9.98;;;;;;;6.19;53.67;101132.91;2016534;88;27742;-68
2022/03/08 12:16:28;;;;;;;15.55;8.70;;;;;;;6.27;53.96;101126.12;2080122;85;28671;-68
2022/03/08 12:19:37;;;;;;;15.23;9.60;;;;;;;6.36;53.75;101127.30;2083780;83;31376;-67
2022/03/08 12:22:40;;;;;;;14.65;8.85;;;;;;;6.43;53.74;101128.48;2080547;84;33070;-72
2022/03/08 12:25:47;;;;;;;17.70;7.67;;;;;;;6.46;53.31;101129.77;2080198;85;29879;-70
2022/03/08 12:29:23;;;;;;;13.08;8.50;;;;;;;6.48;53.41;101130.62;2074664;85;27638;-70
2022/03/08 12:32:45;;;;;;;18.98;8.80;;;;;;;6.50;53.45;101136.80;2080851;85;28665;-70
2022/03/08 12:35:53;;;;;;;13.35;8.28;;;;;;;6.56;53.25;101122.48;2080654;85;31036;-70
2022/03/08 12:38:55;;;;;;;15.05;8.73;;;;;;;6.56;52.61;101118.48;2090825;84;33018;-70
2022/03/08 12:41:59;;;;;;;17.52;8.13;;;;;;;6.61;52.78;101107.30;2102432;84;29063;-68
2022/03/08 12:45:09;;;;;;;19.48;7.53;;;;;;;6.63;52.71;101102.80;2116086;84;27797;-69
2022/03/08 12:48:18;;;;;;;12.03;6.83;;;;;;;6.60;51.97;101110.88;2139621;80;28652;-70
2022/03/08 12:51:23;;;;;;;13.58;7.00;;;;;;;6.57;52.17;101109.13;2216703;80;31017;-69
2022/03/08 12:54:25;;;;;;;12.28;7.05;;;;;;;6.56;52.14;101098.05;2216977;80;33784;-68
2022/03/08 12:57:28;;;;;;;12.60;8.15;;;;;;;6.58;52.04;101092.72;2217061;80;29023;-67
2022/03/08 13:00:46;;;;;;;15.05;7.70;;;;;;;6.57;51.90;101094.48;2217366;80;27753;-69
2022/03/08 13:03:48;;;;;;;12.93;6.97;;;;;;;6.56;52.02;101086.08;2183080;80;28671;-68
2022/03/08 13:07:09;;;;;;;15.43;7.87;;;;;;;6.58;51.89;101082.07;2157016;81;31086;-68
2022/03/08 13:10:13;;;;;;;15.72;8.70;;;;;;;6.54;51.62;101079.90;2143632;81;33855;-70
2022/03/08 13:13:15;;;;;;;15.23;7.97;;;;;;;6.53;51.44;101078.17;2144013;81;28877;-69
2022/03/08 13:16:19;;;;;;;12.30;7.90;;;;;;;6.49;51.32;101084.46;2143836;82;27687;-68
2022/03/08 13:19:22;;;;;;;12.50;7.80;;;;;;;6.49;51.31;101088.45;2145083;80;28666;-69
2022/03/08 13:22:24;;;;;;;11.63;7.80;;;;;;;6.48;51.31;101078.72;2143520;81;31082;-67
2022/03/08 13:25:25;;;;;;;12.28;8.35;;;;;;;6.51;51.15;101081.32;2143307;83;33758;-67
2022/03/08 13:28:33;;;;;;;18.60;10.10;;;;;;;6.53;51.05;101083.50;2143493;83;28398;-69
2022/03/08 13:31:41;;;;;;;15.60;7.83;;;;;;;6.56;51.14;101082.55;2143968;83;27649;-67
2022/03/08 13:34:58;;;;;;;13.68;8.18;;;;;;;6.61;50.98;101083.34;2165350;81;29601;-72
2022/03/08 13:37:59;;;;;;;14.28;8.95;;;;;;;6.66;50.83;101078.78;2175980;81;31037;-71
2022/03/08 13:41:08;;;;;;;13.25;8.50;;;;;;;6.70;50.81;101080.48;2167514;81;33902;-68
2022/03/08 13:44:13;;;;;;;11.05;7.80;;;;;;;6.73;50.84;101077.75;2167784;82;29051;-67
2022/03/08 13:47:14;;;;;;;11.55;6.15;;;;;;;6.74;50.51;101078.18;2153792;80;27746;-69
2022/03/08 13:50:16;;;;;;;11.75;6.87;;;;;;;6.72;49.54;101085.32;2146109;81;29715;-68
2022/03/08 13:53:18;;;;;;;10.13;6.10;;;;;;;6.70;49.66;101081.81;2147799;81;32037;-68
2022/03/08 13:56:21;;;;;;;10.53;6.58;;;;;;;6.69;49.48;101083.61;2180710;81;32982;-66
2022/03/08 13:59:37;;;;;;;11.22;5.92;;;;;;;6.69;49.34;101087.60;2150983;81;28877;-66
2022/03/08 14:02:40;;;;;;;9.85;5.90;;;;;;;6.67;49.26;101089.42;2143056;82;27774;-66
2022/03/08 14:06:01;;;;;;;12.23;7.17;;;;;;;6.67;49.42;101075.21;2143971;82;28668;-67